Time;durP1;ratioP1;P1;durP2;ratioP2;P2;SDS_P1;SDS_P2;PMS_P1;PMS_P2;Temp;Humidity;BMP_temperature;BMP_pressure;BME280_temperature;BME280_humidity;BME280_pressure;Samples;Min_cycle;Max_cycle;Signal;HPM_P1;HPM_P2
2020/12/18 07:45:09;;;;;;;53.05;17.92;;;;;;;-0.01;93.08;100730.97;3575847;27;20168;-43
2020/12/18 07:46:52;;;;;;;54.78;19.17;;;;;;;-0.03;93.35;100730.00;3556692;27;20612;-44
2020/12/18 07:48:35;;;;;;;55.55;20.60;;;;;;;-0.02;93.28;100733.44;3545812;27;20483;-44
2020/12/18 07:50:16;;;;;;;49.65;17.65;;;;;;;-0.02;93.05;100734.31;3553407;27;20213;-44
2020/12/18 07:52:06;;;;;;;60.38;19.67;;;;;;;-0.00;93.22;100729.34;3551099;27;20499;-43
2020/12/18 07:53:51;;;;;;;50.13;20.13;;;;;;;-0.00;93.26;100737.00;3553228;27;20043;-45
2020/12/18 07:55:33;;;;;;;48.95;18.70;;;;;;;-0.02;93.43;100739.44;3546241;27;20054;-44
2020/12/18 07:57:14;;;;;;;53.95;20.35;;;;;;;-0.02;93.27;100734.31;3549683;27;20510;-45
2020/12/18 07:58:57;;;;;;;47.22;18.70;;;;;;;-0.00;93.21;100737.00;3543604;27;20074;-48
2020/12/18 08:00:43;;;;;;;51.83;19.27;;;;;;;0.01;93.53;100734.56;3544076;27;20048;-44
2020/12/18 08:02:25;;;;;;;44.90;15.48;;;;;;;0.02;93.22;100735.44;3543479;27;20066;-44
2020/12/18 08:04:10;;;;;;;46.60;17.73;;;;;;;0.02;93.18;100735.44;3544437;27;20043;-44
2020/12/18 08:05:51;;;;;;;35.88;14.57;;;;;;;0.01;93.14;100734.56;3546354;27;20055;-44
2020/12/18 08:07:32;;;;;;;25.73;9.85;;;;;;;0.01;93.27;100737.09;3548666;27;20487;-44
2020/12/18 08:09:16;;;;;;;52.65;20.60;;;;;;;0.00;93.07;100737.88;3545398;27;20047;-44
2020/12/18 08:11:00;;;;;;;42.20;16.98;;;;;;;-0.00;93.37;100734.44;3549281;27;20050;-44
2020/12/18 08:12:42;;;;;;;43.15;18.17;;;;;;;0.00;93.33;100740.41;3546820;27;20053;-45
2020/12/18 08:14:23;;;;;;;49.80;17.35;;;;;;;-0.00;93.21;100737.00;3548510;27;20047;-44
2020/12/18 08:16:10;;;;;;;31.38;13.10;;;;;;;-0.01;93.24;100740.31;3547065;27;20111;-44
2020/12/18 08:17:51;;;;;;;36.35;14.70;;;;;;;-0.01;93.01;100740.31;3546677;27;23193;-44
2020/12/18 08:19:33;;;;;;;46.05;16.48;;;;;;;-0.04;93.40;100729.88;3543432;27;20601;-44
2020/12/18 08:21:18;;;;;;;35.03;14.30;;;;;;;-0.01;93.06;100743.72;3548741;27;20166;-56
2020/12/18 08:23:01;;;;;;;35.08;13.73;;;;;;;0.01;93.38;100738.75;3548079;27;20054;-55
2020/12/18 08:25:01;;;;;;;34.67;14.48;;;;;;;0.01;93.14;100744.75;3546567;27;20038;-55
2020/12/18 08:26:50;;;;;;;32.38;12.80;;;;;;;0.04;93.40;100738.97;3546557;27;20049;-53
2020/12/18 08:28:33;;;;;;;36.70;13.43;;;;;;;0.05;93.46;100735.66;3544670;27;20085;-55
2020/12/18 08:30:17;;;;;;;29.42;13.40;;;;;;;0.07;93.25;100736.66;3547067;27;20043;-55
2020/12/18 08:32:02;;;;;;;37.03;15.50;;;;;;;0.06;93.25;100732.31;3546921;27;20073;-55
2020/12/18 08:33:50;;;;;;;30.52;12.68;;;;;;;0.07;93.26;100721.34;3547875;27;20046;-55
2020/12/18 08:35:31;;;;;;;31.02;14.38;;;;;;;0.09;92.94;100731.66;3546513;27;20080;-56
2020/12/18 08:37:21;;;;;;;33.25;13.55;;;;;;;0.10;93.16;100736.88;3548716;27;20053;-55
2020/12/18 08:39:05;;;;;;;30.33;12.55;;;;;;;0.09;92.95;100734.22;3543877;27;20047;-54
2020/12/18 08:40:47;;;;;;;29.35;12.52;;;;;;;0.08;92.57;100728.22;3549281;27;20078;-55
2020/12/18 08:42:28;;;;;;;27.52;11.32;;;;;;;0.09;93.02;100729.13;3545444;27;20043;-55
2020/12/18 08:44:29;;;;;;;34.33;15.10;;;;;;;0.09;92.79;100727.44;3549082;27;20054;-55
2020/12/18 08:46:11;;;;;;;35.90;15.57;;;;;;;0.10;93.08;100720.66;3546965;27;20047;-54
2020/12/18 08:47:54;;;;;;;33.90;14.63;;;;;;;0.10;92.93;100723.22;3547323;27;20043;-52
2020/12/18 08:49:36;;;;;;;29.17;12.23;;;;;;;0.10;93.08;100719.03;3545662;27;20091;-51
2020/12/18 08:51:19;;;;;;;29.50;12.43;;;;;;;0.13;93.06;100721.78;3548904;27;20047;-51
2020/12/18 08:53:08;;;;;;;28.23;12.00;;;;;;;0.14;93.08;100717.59;3548116;27;20411;-51
2020/12/18 08:54:59;;;;;;;30.63;12.35;;;;;;;0.13;92.63;100718.34;3545402;27;20046;-50
2020/12/18 08:56:40;;;;;;;38.28;15.35;;;;;;;0.13;92.43;100715.81;3537596;28;20077;-53
2020/12/18 08:58:25;;;;;;;25.67;11.52;;;;;;;0.15;92.76;100715.13;3533893;27;20519;-50
2020/12/18 09:00:12;;;;;;;36.25;12.75;;;;;;;0.17;92.70;100717.78;3537290;28;20055;-52
2020/12/18 09:01:54;;;;;;;33.17;13.52;;;;;;;0.21;92.76;100709.59;3538359;27;20423;-51
2020/12/18 09:03:40;;;;;;;31.38;13.38;;;;;;;0.22;92.92;100711.34;3537517;28;20047;-54
2020/12/18 09:05:25;;;;;;;30.17;13.48;;;;;;;0.25;92.59;100708.16;3533903;27;20039;-55
2020/12/18 09:07:06;;;;;;;30.45;9.88;;;;;;;0.28;92.87;100704.16;3537456;28;20296;-54
2020/12/18 09:08:47;;;;;;;27.70;9.63;;;;;;;0.31;92.59;100703.47;3534978;27;20048;-55
2020/12/18 09:10:38;;;;;;;23.83;11.23;;;;;;;0.34;92.45;100707.13;3538837;27;20151;-53
2020/12/18 09:12:20;;;;;;;28.65;11.77;;;;;;;0.39;92.73;100700.69;3537043;27;20621;-54
2020/12/18 09:14:01;;;;;;;30.65;12.65;;;;;;;0.46;92.79;100693.47;3537973;28;20039;-55
2020/12/18 09:15:45;;;;;;;30.17;12.68;;;;;;;0.52;92.79;100687.09;3537009;27;20071;-53
2020/12/18 09:17:26;;;;;;;26.80;12.00;;;;;;;0.59;92.47;100683.31;3537998;28;20055;-54
2020/12/18 09:19:08;;;;;;;28.50;10.95;;;;;;;0.66;92.72;100677.84;3534968;27;20039;-54
2020/12/18 09:20:52;;;;;;;25.58;10.40;;;;;;;0.72;92.59;100679.94;3538422;28;20059;-44
2020/12/18 09:22:51;;;;;;;24.73;10.40;;;;;;;0.78;92.06;100673.59;3536547;27;20069;-47
2020/12/18 09:24:33;;;;;;;25.27;10.77;;;;;;;0.84;91.76;100677.34;3530651;28;20052;-44
2020/12/18 09:26:23;;;;;;;26.88;11.57;;;;;;;0.91;91.91;100672.81;3533169;27;20537;-44
2020/12/18 09:28:10;;;;;;;29.80;11.27;;;;;;;0.98;91.93;100671.53;3535060;27;20046;-44
2020/12/18 09:29:57;;;;;;;28.25;10.90;;;;;;;1.03;91.71;100672.72;3538205;27;20057;-43
2020/12/18 09:31:39;;;;;;;23.70;11.10;;;;;;;1.06;91.31;100670.38;3539731;27;20205;-44
2020/12/18 09:33:32;;;;;;;24.38;10.82;;;;;;;1.09;91.34;100672.25;3535965;27;20054;-44
2020/12/18 09:35:14;;;;;;;23.85;11.00;;;;;;;1.13;91.42;100669.13;3535324;28;20108;-44
2020/12/18 09:36:56;;;;;;;20.80;9.65;;;;;;;1.15;91.04;100670.13;3537085;27;20552;-44
2020/12/18 09:38:38;;;;;;;23.05;10.70;;;;;;;1.16;91.13;100665.13;3531752;27;20047;-44
2020/12/18 09:40:20;;;;;;;22.35;9.73;;;;;;;1.21;90.77;100664.53;3543570;27;20043;-44
2020/12/18 09:42:20;;;;;;;15.73;7.65;;;;;;;1.16;90.13;100662.56;3547996;27;20415;-44
2020/12/18 09:44:16;;;;;;;12.75;7.15;;;;;;;1.15;89.94;100665.00;3539367;27;20103;-44
2020/12/18 09:45:58;;;;;;;19.13;7.72;;;;;;;1.16;90.15;100666.78;3536651;27;20467;-44
2020/12/18 09:47:39;;;;;;;16.15;7.85;;;;;;;1.16;89.83;100666.78;3536914;27;20043;-44
2020/12/18 09:49:21;;;;;;;18.42;6.97;;;;;;;1.15;89.99;100668.44;3533830;27;20412;-44
2020/12/18 09:51:03;;;;;;;22.05;9.07;;;;;;;1.08;89.40;100668.81;3538926;27;20079;-44
2020/12/18 09:52:44;;;;;;;18.52;7.70;;;;;;;1.02;88.73;100668.41;3536474;28;20131;-45
2020/12/18 09:54:25;;;;;;;12.38;6.35;;;;;;;0.96;89.00;100667.97;3536910;27;20074;-44
2020/12/18 09:56:08;;;;;;;16.20;7.22;;;;;;;0.93;88.95;100671.22;3536567;27;20445;-44
2020/12/18 09:57:49;;;;;;;16.90;7.60;;;;;;;0.90;88.94;100671.00;3536087;27;20048;-44
2020/12/18 09:59:30;;;;;;;16.85;7.75;;;;;;;0.90;88.67;100665.91;3533693;27;20066;-45
2020/12/18 10:01:16;;;;;;;21.98;8.50;;;;;;;0.90;89.25;100671.00;3537716;28;20043;-45
2020/12/18 10:03:03;;;;;;;24.38;12.10;;;;;;;0.89;88.98;100669.22;3537409;27;20047;-46
2020/12/18 10:04:45;;;;;;;22.73;11.00;;;;;;;0.90;89.68;100670.13;3541019;27;20546;-44
2020/12/18 10:06:28;;;;;;;26.65;12.25;;;;;;;0.90;89.76;100667.59;3516586;27;20464;-44
2020/12/18 10:08:09;;;;;;;27.52;11.80;;;;;;;0.89;89.63;100660.69;3504722;28;20056;-45
2020/12/18 10:09:50;;;;;;;24.73;11.07;;;;;;;0.88;89.40;100664.03;3506372;28;20044;-44
2020/12/18 10:11:32;;;;;;;33.55;15.20;;;;;;;0.87;89.42;100668.25;3497190;28;20094;-45
2020/12/18 10:13:14;;;;;;;41.40;19.33;;;;;;;0.86;89.13;100663.03;3505481;28;20488;-44
2020/12/18 10:14:55;;;;;;;38.97;20.42;;;;;;;0.82;89.14;100655.94;3508808;28;20044;-44
2020/12/18 10:16:37;;;;;;;30.77;13.35;;;;;;;0.80;89.33;100661.81;3506923;28;20076;-44
2020/12/18 10:18:18;;;;;;;22.30;10.23;;;;;;;0.83;89.40;100665.38;3511545;28;20047;-44
2020/12/18 10:20:00;;;;;;;29.77;12.07;;;;;;;0.84;89.75;100660.34;3507226;28;20039;-44
2020/12/18 10:21:42;;;;;;;27.27;11.18;;;;;;;0.84;89.80;100656.94;3515466;28;20430;-44
2020/12/18 10:23:23;;;;;;;22.67;10.38;;;;;;;0.83;89.73;100660.28;3510973;28;20043;-44
2020/12/18 10:25:10;;;;;;;25.58;11.10;;;;;;;0.81;89.61;100667.84;3510477;28;20077;-44
2020/12/18 10:26:52;;;;;;;22.58;10.98;;;;;;;0.82;89.61;100663.59;3508489;28;20134;-44
2020/12/18 10:28:34;;;;;;;22.20;10.32;;;;;;;0.79;89.41;100667.72;3503407;28;20049;-47
2020/12/18 10:30:15;;;;;;;22.45;10.13;;;;;;;0.78;89.50;100663.38;3503434;28;20047;-45
2020/12/18 10:31:57;;;;;;;19.02;8.85;;;;;;;0.77;89.59;100659.06;3510784;28;20055;-44
2020/12/18 10:33:38;;;;;;;17.00;8.35;;;;;;;0.78;90.15;100655.72;3506694;28;20048;-45
2020/12/18 10:35:20;;;;;;;20.80;8.80;;;;;;;0.77;89.72;100655.63;3510569;28;20056;-46
2020/12/18 10:37:02;;;;;;;18.00;8.07;;;;;;;0.76;89.82;100656.41;3506534;28;20040;-45
2020/12/18 10:38:44;;;;;;;18.80;8.30;;;;;;;0.75;89.95;100655.53;3505960;28;20048;-44
2020/12/18 10:40:26;;;;;;;17.58;8.30;;;;;;;0.76;89.61;100661.53;3505754;28;20052;-45
2020/12/18 10:42:08;;;;;;;17.38;8.98;;;;;;;0.74;89.21;100657.97;3510208;28;20052;-44
2020/12/18 10:43:50;;;;;;;19.20;9.25;;;;;;;0.74;89.19;100657.97;3509016;28;20044;-44
2020/12/18 10:45:31;;;;;;;17.80;8.93;;;;;;;0.73;89.36;100651.09;3510075;28;20047;-44
2020/12/18 10:47:13;;;;;;;17.65;8.27;;;;;;;0.74;89.54;100651.19;3506400;28;20534;-44
2020/12/18 10:48:55;;;;;;;17.50;8.68;;;;;;;0.75;89.20;100650.44;3506075;28;20043;-44
2020/12/18 10:50:36;;;;;;;16.05;8.15;;;;;;;0.73;88.99;100649.41;3506185;28;20049;-44
2020/12/18 10:52:18;;;;;;;16.45;7.63;;;;;;;0.68;88.97;100643.09;3510362;28;20098;-46
2020/12/18 10:53:59;;;;;;;18.58;7.28;;;;;;;0.67;89.08;100649.00;3505089;28;20048;-44
2020/12/18 10:55:41;;;;;;;15.30;6.72;;;;;;;0.64;88.76;100643.69;3518582;28;21228;-44
2020/12/18 10:57:23;;;;;;;16.20;7.75;;;;;;;0.62;88.62;100650.34;3506656;28;20139;-45
2020/12/18 10:59:04;;;;;;;14.45;7.05;;;;;;;0.59;88.81;100650.13;3500693;28;20131;-44
2020/12/18 11:00:46;;;;;;;17.55;8.07;;;;;;;0.56;88.90;100645.72;3503656;28;20071;-44
2020/12/18 11:02:27;;;;;;;19.15;8.73;;;;;;;0.56;89.29;100639.69;3514889;28;20048;-44
2020/12/18 11:04:12;;;;;;;17.88;8.55;;;;;;;0.56;89.27;100643.16;3510158;28;20414;-44
2020/12/18 11:05:54;;;;;;;20.27;9.35;;;;;;;0.58;89.93;100640.72;3511056;28;20134;-44
2020/12/18 11:07:36;;;;;;;20.15;9.45;;;;;;;0.56;89.22;100630.41;3506886;28;20048;-44
2020/12/18 11:09:17;;;;;;;21.15;9.30;;;;;;;0.54;89.24;100637.06;3499474;28;20053;-44
2020/12/18 11:10:59;;;;;;;17.70;8.65;;;;;;;0.54;89.51;100633.59;3506605;28;20527;-44
2020/12/18 11:12:40;;;;;;;19.05;9.02;;;;;;;0.52;89.49;100633.50;3509629;28;20056;-44
2020/12/18 11:14:22;;;;;;;18.98;9.25;;;;;;;0.54;90.03;100633.59;3506177;28;20079;-45
2020/12/18 11:16:03;;;;;;;20.02;9.98;;;;;;;0.53;89.72;100632.72;3515319;28;20444;-44
2020/12/18 11:17:45;;;;;;;32.33;13.30;;;;;;;0.53;89.54;100640.38;3508839;28;20055;-45
2020/12/18 11:19:26;;;;;;;23.70;11.45;;;;;;;0.53;89.77;100636.97;3513891;28;20566;-44
2020/12/18 11:21:08;;;;;;;22.50;9.80;;;;;;;0.50;89.54;100639.28;3508861;28;20461;-44
2020/12/18 11:22:50;;;;;;;22.00;10.43;;;;;;;0.49;89.41;100634.97;3509321;28;20052;-44
2020/12/18 11:24:31;;;;;;;16.92;9.40;;;;;;;0.49;89.89;100635.88;3507283;28;20055;-44
2020/12/18 11:26:13;;;;;;;22.90;10.07;;;;;;;0.49;90.03;100633.31;3509545;28;20052;-44
2020/12/18 11:27:54;;;;;;;21.23;9.55;;;;;;;0.49;90.16;100643.53;3504252;28;20381;-44
2020/12/18 11:29:36;;;;;;;26.25;11.77;;;;;;;0.48;90.20;100631.53;3507534;28;20079;-44
2020/12/18 11:31:18;;;;;;;21.38;10.68;;;;;;;0.47;90.04;100637.44;3506261;28;20501;-47
2020/12/18 11:32:59;;;;;;;21.90;11.07;;;;;;;0.47;90.18;100631.41;3509377;28;20048;-44
2020/12/18 11:34:40;;;;;;;23.48;10.88;;;;;;;0.47;90.07;100636.53;3506634;28;20051;-44
2020/12/18 11:36:22;;;;;;;29.42;12.88;;;;;;;0.50;90.32;100629.09;3509432;28;20048;-45
2020/12/18 11:38:04;;;;;;;33.83;14.27;;;;;;;0.52;90.69;100627.50;3502862;28;20072;-44
2020/12/18 11:39:45;;;;;;;51.28;19.63;;;;;;;0.53;90.73;100625.06;3507789;28;20052;-45
2020/12/18 11:41:27;;;;;;;46.20;17.85;;;;;;;0.54;90.60;100623.41;3506773;28;20087;-45
2020/12/18 11:43:08;;;;;;;40.60;16.45;;;;;;;0.53;90.35;100625.06;3508725;28;20491;-44
2020/12/18 11:44:50;;;;;;;48.92;19.15;;;;;;;0.54;90.64;100628.50;3506179;28;20105;-46
2020/12/18 11:46:31;;;;;;;33.63;15.60;;;;;;;0.56;90.76;100629.50;3508547;28;20044;-47
2020/12/18 11:48:13;;;;;;;43.75;19.13;;;;;;;0.55;90.47;100632.84;3507412;28;20527;-46
2020/12/18 11:49:54;;;;;;;31.08;14.85;;;;;;;0.55;90.80;100632.84;3508887;28;20050;-44
2020/12/18 11:51:35;;;;;;;41.58;16.67;;;;;;;0.55;90.88;100627.72;3508559;28;20484;-44
2020/12/18 11:53:18;;;;;;;40.28;15.75;;;;;;;0.53;90.91;100621.66;3508522;28;20060;-45
2020/12/18 11:54:59;;;;;;;38.30;16.08;;;;;;;0.53;90.85;100624.19;3506750;28;20059;-44
2020/12/18 11:56:55;;;;;;;32.47;14.80;;;;;;;0.54;90.70;100623.41;3508755;28;20044;-44
2020/12/18 11:58:37;;;;;;;33.05;14.45;;;;;;;0.54;91.00;100620.84;3504524;28;20417;-44
2020/12/18 12:00:20;;;;;;;30.65;13.00;;;;;;;0.55;90.77;100620.06;3501419;28;20049;-44
2020/12/18 12:02:01;;;;;;;29.70;12.82;;;;;;;0.55;91.01;100620.06;3512766;28;20048;-56
2020/12/18 12:03:43;;;;;;;32.20;14.15;;;;;;;0.55;90.79;100620.94;3508280;28;20053;-54
2020/12/18 12:05:25;;;;;;;33.33;15.35;;;;;;;0.57;90.98;100626.16;3507433;28;20079;-55
2020/12/18 12:07:07;;;;;;;34.45;14.50;;;;;;;0.59;91.07;100624.59;3507226;28;20051;-55
2020/12/18 12:08:50;;;;;;;35.75;15.10;;;;;;;0.57;90.80;100619.38;3510410;28;20052;-56
2020/12/18 12:10:31;;;;;;;33.40;15.30;;;;;;;0.55;91.16;100618.41;3504072;28;20044;-54
2020/12/18 12:12:13;;;;;;;38.88;16.88;;;;;;;0.55;91.02;100617.53;3507939;28;20515;-55
2020/12/18 12:13:54;;;;;;;33.72;15.25;;;;;;;0.53;91.06;100616.53;3513247;28;20081;-55
2020/12/18 12:15:36;;;;;;;37.05;14.93;;;;;;;0.53;91.27;100616.53;3512433;28;20052;-53
2020/12/18 12:17:17;;;;;;;34.92;16.48;;;;;;;0.51;91.37;100613.88;3510407;28;20071;-56
2020/12/18 12:18:58;;;;;;;39.42;15.00;;;;;;;0.51;91.17;100613.88;3505628;28;20093;-56
2020/12/18 12:20:40;;;;;;;29.10;13.02;;;;;;;0.53;91.57;100611.44;3508431;28;20402;-55
2020/12/18 12:22:23;;;;;;;29.08;13.05;;;;;;;0.53;91.31;100608.88;3505120;28;20036;-56
2020/12/18 12:24:06;;;;;;;30.58;14.00;;;;;;;0.53;91.42;100611.44;3505013;28;20129;-53
2020/12/18 12:25:47;;;;;;;53.75;25.98;;;;;;;0.51;91.27;100608.78;3506240;28;20048;-55
2020/12/18 12:27:28;;;;;;;35.47;16.58;;;;;;;0.50;91.51;100612.09;3505436;28;20094;-53
2020/12/18 12:29:10;;;;;;;31.85;14.60;;;;;;;0.50;91.51;100614.66;3506822;28;20139;-55
2020/12/18 12:30:51;;;;;;;25.08;12.52;;;;;;;0.48;91.43;100605.13;3507348;28;20129;-55
2020/12/18 12:32:33;;;;;;;26.92;11.70;;;;;;;0.48;91.47;100605.13;3509331;28;20052;-52
2020/12/18 12:34:14;;;;;;;24.45;11.63;;;;;;;0.47;91.47;100596.59;3508156;28;20140;-44
2020/12/18 12:35:56;;;;;;;28.10;12.98;;;;;;;0.50;91.70;100609.53;3509225;28;20055;-44
2020/12/18 12:37:37;;;;;;;29.05;12.00;;;;;;;0.51;91.84;100602.78;3509237;28;20500;-44
2020/12/18 12:39:19;;;;;;;30.55;12.90;;;;;;;0.51;91.80;100602.78;3501279;28;20041;-44
2020/12/18 12:41:00;;;;;;;28.10;12.75;;;;;;;0.52;91.86;100607.09;3510764;28;20132;-45
2020/12/18 12:42:42;;;;;;;31.83;14.02;;;;;;;0.49;91.50;100611.97;3509826;28;20073;-52
2020/12/18 12:44:23;;;;;;;30.83;14.77;;;;;;;0.49;91.69;100604.31;3510524;28;20508;-52
2020/12/18 12:46:05;;;;;;;32.15;14.98;;;;;;;0.49;91.68;100600.13;3510798;28;20056;-51
2020/12/18 12:47:47;;;;;;;32.83;13.13;;;;;;;0.48;91.85;100613.66;3509088;28;20048;-54
2020/12/18 12:49:28;;;;;;;33.05;13.70;;;;;;;0.49;92.04;100610.34;3511849;28;20420;-55
2020/12/18 12:51:10;;;;;;;33.92;13.35;;;;;;;0.49;91.95;100605.22;3509338;28;20049;-51
2020/12/18 12:52:51;;;;;;;28.23;13.10;;;;;;;0.51;92.08;100613.00;3511254;28;20043;-55
2020/12/18 12:54:33;;;;;;;33.80;14.25;;;;;;;0.50;92.07;100611.22;3508004;28;20063;-54
2020/12/18 12:56:16;;;;;;;38.65;15.88;;;;;;;0.48;91.90;100607.69;3511467;28;20044;-52
2020/12/18 12:57:57;;;;;;;37.05;15.35;;;;;;;0.47;91.77;100608.44;3506202;28;20566;-54
2020/12/18 12:59:38;;;;;;;40.63;16.38;;;;;;;0.45;92.05;100616.00;3505428;28;20075;-55
2020/12/18 13:01:20;;;;;;;39.15;14.93;;;;;;;0.42;91.93;100616.69;3508259;28;20063;-56
2020/12/18 13:03:01;;;;;;;37.42;15.02;;;;;;;0.41;91.81;100617.44;3518249;28;20036;-55
2020/12/18 13:04:43;;;;;;;39.00;15.30;;;;;;;0.41;92.20;100614.88;3507863;28;20086;-55
2020/12/18 13:06:24;;;;;;;36.35;15.55;;;;;;;0.41;91.98;100616.56;3506963;28;20291;-53
2020/12/18 13:08:06;;;;;;;45.45;17.83;;;;;;;0.39;92.11;100621.56;3508800;28;20044;-55
2020/12/18 13:09:48;;;;;;;46.30;18.77;;;;;;;0.37;91.95;100624.81;3509653;28;20078;-53
2020/12/18 13:11:33;;;;;;;44.85;17.27;;;;;;;0.34;91.94;100628.00;3509377;28;20079;-55
2020/12/18 13:13:14;;;;;;;44.05;18.25;;;;;;;0.33;92.18;100615.13;3510591;28;20101;-52
2020/12/18 13:14:56;;;;;;;39.95;16.60;;;;;;;0.34;92.20;100622.03;3508150;28;20097;-51
2020/12/18 13:16:37;;;;;;;41.67;18.45;;;;;;;0.34;92.33;100619.47;3507926;28;20583;-49
2020/12/18 13:18:19;;;;;;;50.35;20.80;;;;;;;0.34;92.34;100619.47;3509248;28;20054;-52
2020/12/18 13:20:00;;;;;;;53.03;20.83;;;;;;;0.32;92.41;100616.81;3510645;28;20044;-52
2020/12/18 13:21:42;;;;;;;40.17;17.83;;;;;;;0.33;92.70;100620.25;3512326;28;20075;-54
2020/12/18 13:23:23;;;;;;;46.65;19.75;;;;;;;0.32;92.54;100623.59;3523687;28;20051;-54
2020/12/18 13:25:05;;;;;;;41.90;16.58;;;;;;;0.32;92.48;100623.59;3507883;28;20495;-55
2020/12/18 13:26:47;;;;;;;52.40;18.77;;;;;;;0.30;92.52;100620.06;3509499;28;20040;-54
2020/12/18 13:28:28;;;;;;;42.22;17.50;;;;;;;0.29;92.69;100614.03;3508140;28;20424;-54
2020/12/18 13:30:10;;;;;;;47.00;18.80;;;;;;;0.29;92.64;100624.25;3504901;28;20040;-50
2020/12/18 13:31:51;;;;;;;48.40;18.90;;;;;;;0.27;92.87;100620.72;3509577;28;20433;-52
2020/12/18 13:33:33;;;;;;;47.95;17.35;;;;;;;0.26;93.09;100624.06;3507633;28;20063;-54
2020/12/18 13:35:15;;;;;;;49.55;18.55;;;;;;;0.23;93.06;100614.50;3507664;28;20492;-51
2020/12/18 13:36:56;;;;;;;44.15;15.57;;;;;;;0.24;93.12;100617.94;3508681;28;20048;-53
2020/12/18 13:38:38;;;;;;;53.53;18.48;;;;;;;0.24;92.98;100623.03;3509081;28;20056;-54
2020/12/18 13:40:20;;;;;;;43.60;18.20;;;;;;;0.23;93.05;100613.63;3503921;28;20442;-51
2020/12/18 13:42:02;;;;;;;44.50;16.73;;;;;;;0.22;93.03;100622.97;3508580;28;20052;-54
2020/12/18 13:43:44;;;;;;;53.83;17.95;;;;;;;0.22;93.34;100620.41;3507104;28;20056;-51
2020/12/18 13:45:25;;;;;;;41.45;16.38;;;;;;;0.20;93.08;100611.72;3508712;28;20044;-50
2020/12/18 13:47:07;;;;;;;44.78;14.90;;;;;;;0.20;93.43;100621.94;3509155;28;20040;-50
2020/12/18 13:48:49;;;;;;;43.30;16.98;;;;;;;0.19;93.46;100615.06;3508018;28;20052;-54
2020/12/18 13:50:30;;;;;;;48.92;17.98;;;;;;;0.18;93.46;100620.94;3506008;28;20386;-52
2020/12/18 13:52:12;;;;;;;47.63;18.27;;;;;;;0.18;93.62;100613.28;3507840;28;20048;-53
2020/12/18 13:53:53;;;;;;;50.97;19.30;;;;;;;0.18;93.26;100614.97;3508287;28;20109;-53
2020/12/18 13:55:35;;;;;;;47.47;18.10;;;;;;;0.19;93.30;100609.97;3509170;28;20109;-49
2020/12/18 13:57:17;;;;;;;45.72;17.10;;;;;;;0.17;93.58;100614.09;3507349;28;22038;-50
2020/12/18 13:58:59;;;;;;;56.60;18.60;;;;;;;0.17;93.52;100616.63;3510840;28;20052;-51
2020/12/18 14:00:43;;;;;;;52.72;17.42;;;;;;;0.17;93.81;100609.00;3506180;28;20059;-49
2020/12/18 14:02:25;;;;;;;50.55;19.42;;;;;;;0.17;93.71;100605.53;3509808;28;20051;-50
2020/12/18 14:04:06;;;;;;;54.08;18.17;;;;;;;0.16;93.47;100608.88;3506516;28;20051;-53
2020/12/18 14:05:48;;;;;;;46.83;17.50;;;;;;;0.15;93.62;100607.97;3507034;28;20448;-53
2020/12/18 14:07:30;;;;;;;54.40;19.05;;;;;;;0.14;93.76;100616.41;3507990;28;20052;-53
2020/12/18 14:09:13;;;;;;;46.97;18.23;;;;;;;0.14;93.55;100615.53;3508890;28;20043;-50
2020/12/18 14:10:55;;;;;;;60.58;20.23;;;;;;;0.13;93.81;100612.09;3508200;28;20036;-52
2020/12/18 14:12:36;;;;;;;59.40;19.85;;;;;;;0.12;93.68;100607.78;3507471;28;20055;-50
2020/12/18 14:14:18;;;;;;;47.47;17.30;;;;;;;0.13;93.69;100606.97;3508688;28;20078;-50
2020/12/18 14:15:59;;;;;;;57.25;19.00;;;;;;;0.14;94.02;100606.22;3505053;28;20079;-49
2020/12/18 14:17:41;;;;;;;55.63;20.92;;;;;;;0.15;94.01;100604.53;3499451;28;20051;-50
2020/12/18 14:19:22;;;;;;;65.60;24.63;;;;;;;0.15;93.87;100610.50;3507708;28;20122;-50
2020/12/18 14:21:04;;;;;;;56.15;22.10;;;;;;;0.15;94.15;100599.44;3509755;28;20048;-53
2020/12/18 14:22:46;;;;;;;54.72;19.90;;;;;;;0.16;93.92;100604.66;3508645;28;20048;-51
2020/12/18 14:24:28;;;;;;;52.67;19.02;;;;;;;0.17;94.19;100603.88;3508154;28;20084;-51
2020/12/18 14:26:12;;;;;;;62.58;21.85;;;;;;;0.18;94.32;100604.75;3506363;28;20051;-49
2020/12/18 14:27:54;;;;;;;62.40;20.95;;;;;;;0.18;94.07;100602.22;3507566;28;20398;-53
2020/12/18 14:29:35;;;;;;;56.38;18.55;;;;;;;0.18;94.08;100603.09;3507322;28;20059;-52
2020/12/18 14:31:17;;;;;;;57.80;19.33;;;;;;;0.17;94.17;100606.44;3504544;28;20059;-50
2020/12/18 14:32:58;;;;;;;51.95;19.20;;;;;;;0.18;94.10;100603.09;3506890;28;20051;-52
2020/12/18 14:34:40;;;;;;;48.28;17.58;;;;;;;0.19;94.13;100606.56;3508184;28;20054;-51
2020/12/18 14:36:22;;;;;;;52.90;18.98;;;;;;;0.18;94.28;100595.44;3508200;28;20047;-53
2020/12/18 14:38:03;;;;;;;60.47;20.42;;;;;;;0.19;94.28;100593.78;3507788;28;20076;-53
2020/12/18 14:39:44;;;;;;;55.15;18.63;;;;;;;0.20;93.95;100600.66;3510737;28;20075;-50
2020/12/18 14:41:27;;;;;;;54.15;19.58;;;;;;;0.20;94.13;100601.53;3509022;28;20075;-50
2020/12/18 14:43:08;;;;;;;63.33;19.73;;;;;;;0.21;93.96;100602.44;3505890;28;20079;-50
2020/12/18 14:44:50;;;;;;;83.75;28.38;;;;;;;0.20;93.93;100601.53;3504748;28;20134;-50
2020/12/18 14:46:31;;;;;;;76.40;25.75;;;;;;;0.21;94.07;100602.44;3507436;28;20133;-51
2020/12/18 14:48:13;;;;;;;81.63;27.05;;;;;;;0.20;93.86;100604.06;3508354;28;20071;-50
2020/12/18 14:49:54;;;;;;;83.85;28.00;;;;;;;0.19;94.09;100607.44;3506810;28;20051;-53
2020/12/18 14:51:35;;;;;;;111.00;30.50;;;;;;;0.19;94.05;100606.56;3503172;28;20048;-53
2020/12/18 14:53:17;;;;;;;78.68;23.92;;;;;;;0.19;93.90;100606.56;3507109;28;20126;-53
2020/12/18 14:54:58;;;;;;;104.30;31.15;;;;;;;0.18;93.95;100597.97;3505034;28;20421;-54
2020/12/18 14:56:40;;;;;;;97.45;31.17;;;;;;;0.18;94.03;100612.41;3506618;28;20413;-51
2020/12/18 14:58:28;;;;;;;87.45;26.77;;;;;;;0.19;94.18;100606.56;3507426;28;20048;-52
2020/12/18 15:00:09;;;;;;;74.38;22.23;;;;;;;0.17;94.32;100603.88;3507983;28;20047;-51
2020/12/18 15:01:54;;;;;;;79.03;23.90;;;;;;;0.15;94.18;100602.88;3507357;28;20055;-50
2020/12/18 15:03:35;;;;;;;73.45;23.73;;;;;;;0.15;94.29;100601.97;3507434;28;20126;-53
2020/12/18 15:05:17;;;;;;;70.70;21.92;;;;;;;0.14;94.24;100601.09;3506409;28;20068;-51
2020/12/18 15:06:58;;;;;;;64.32;22.48;;;;;;;0.14;94.20;100602.78;3508649;28;20048;-53
2020/12/18 15:08:40;;;;;;;82.18;25.95;;;;;;;0.14;94.12;100595.13;3506914;28;20420;-50
2020/12/18 15:10:21;;;;;;;85.30;25.50;;;;;;;0.14;94.13;100598.56;3506517;28;20036;-53
2020/12/18 15:12:04;;;;;;;84.68;26.48;;;;;;;0.14;94.08;100602.78;3504331;28;20055;-52
2020/12/18 15:13:46;;;;;;;85.57;23.20;;;;;;;0.13;94.23;100601.88;3504746;28;20047;-52
2020/12/18 15:15:27;;;;;;;68.95;19.67;;;;;;;0.13;94.43;100606.09;3504166;28;20052;-53
2020/12/18 15:17:09;;;;;;;67.45;19.85;;;;;;;0.12;94.28;100599.22;3508272;28;20416;-52
2020/12/18 15:18:50;;;;;;;64.38;20.83;;;;;;;0.10;94.64;100599.13;3506626;28;20047;-50
2020/12/18 15:20:34;;;;;;;79.82;23.27;;;;;;;0.12;94.39;100600.13;3510136;28;20083;-50
2020/12/18 15:22:15;;;;;;;;;;;;;;;0.10;94.31;100598.22;3507199;28;20503;-52
2020/12/18 15:23:57;;;;;;;61.72;19.65;;;;;;;0.09;94.61;100602.44;3509515;28;19970;-50
2020/12/18 15:25:38;;;;;;;63.17;21.63;;;;;;;0.11;94.75;100594.91;3505117;28;20091;-51
2020/12/18 15:27:21;;;;;;;64.20;20.80;;;;;;;0.10;94.70;100591.47;3509592;28;20079;-52
2020/12/18 15:29:03;;;;;;;60.42;19.65;;;;;;;0.10;94.41;100591.47;3506803;28;20432;-52
2020/12/18 15:30:45;;;;;;;65.80;21.35;;;;;;;0.11;94.42;100592.34;3504609;28;20047;-51
2020/12/18 15:32:26;;;;;;;62.40;19.60;;;;;;;0.11;94.85;100597.47;3506111;28;20075;-51
2020/12/18 15:34:08;;;;;;;58.25;20.75;;;;;;;0.10;94.55;100596.59;3508945;28;20491;-53
2020/12/18 15:35:50;;;;;;;62.83;20.90;;;;;;;0.10;94.48;100593.13;3506630;28;20108;-52
2020/12/18 15:37:32;;;;;;;72.57;22.33;;;;;;;0.10;94.63;100594.03;3515751;28;20075;-51